Cooksville, Illinois
Current Conditions -  °F | °C
As of 6:56 PM on Thursday 27 Nov 2014 (Local Time) from KBMI Reporting Station
Light Snow Light Snow  
Wind Chill:   Ceiling: 2300
Heat Index: 19°   Visibility: 10mi
Dew Point: 12°   Wind: 12mph
Humidity: 74%   Direction: 320°NW
Pressure: 30.43"   Gusts: NA
Location:  40.54°N, 88.72°W
Report Text: KBMI 280056Z 32010KT 10SM -SN OVC023 M07/M11 A3043 RMK AO2 T10721111 SNE12B45 P0000 SLP330
Loading
Personal Weather Stations






























Interactive Weather Map New forecast layout! Learn more

10-Day Weather Forecast

Advertisements
Track Severe Weather on mobile